sensor_id;sensor_type;location;lat;lon;timestamp;pressure;altitude;pressure_sealevel;temperature;humidity
12536;BME280;6334;48.696;2.114;2023-05-08T00:01:05;100524.73;;;13.95;78.94
12536;BME280;6334;48.696;2.114;2023-05-08T00:03:35;100522.16;;;14.16;77.98
12536;BME280;6334;48.696;2.114;2023-05-08T00:06:06;100524.95;;;14.23;77.43
12536;BME280;6334;48.696;2.114;2023-05-08T00:08:35;100520.38;;;13.94;78.26
12536;BME280;6334;48.696;2.114;2023-05-08T00:11:06;100522.92;;;13.88;78.37
12536;BME280;6334;48.696;2.114;2023-05-08T00:13:35;100516.91;;;13.87;78.84
12536;BME280;6334;48.696;2.114;2023-05-08T00:16:06;100526.81;;;14.23;77.24
12536;BME280;6334;48.696;2.114;2023-05-08T00:18:36;100523.59;;;14.29;77.10
12536;BME280;6334;48.696;2.114;2023-05-08T00:21:05;100521.72;;;13.76;78.62
12536;BME280;6334;48.696;2.114;2023-05-08T00:23:35;100525.16;;;13.94;77.80
12536;BME280;6334;48.696;2.114;2023-05-08T00:26:04;100523.81;;;13.86;78.37
12536;BME280;6334;48.696;2.114;2023-05-08T00:28:35;100515.78;;;14.04;78.12
12536;BME280;6334;48.696;2.114;2023-05-08T00:31:05;100515.78;;;13.67;79.14
12536;BME280;6334;48.696;2.114;2023-05-08T00:33:35;100519.42;;;13.63;79.70
12536;BME280;6334;48.696;2.114;2023-05-08T00:36:05;100518.09;;;13.59;79.41
12536;BME280;6334;48.696;2.114;2023-05-08T00:38:36;100520.36;;;14.19;77.40
12536;BME280;6334;48.696;2.114;2023-05-08T00:41:05;100518.01;;;13.67;78.51
12536;BME280;6334;48.696;2.114;2023-05-08T00:43:35;100514.60;;;13.72;78.67
12536;BME280;6334;48.696;2.114;2023-05-08T00:46:05;100506.19;;;13.79;79.02
12536;BME280;6334;48.696;2.114;2023-05-08T00:48:34;100511.09;;;13.94;77.76
12536;BME280;6334;48.696;2.114;2023-05-08T00:51:05;100509.86;;;13.55;79.06
12536;BME280;6334;48.696;2.114;2023-05-08T00:53:35;100509.49;;;13.72;78.79
12536;BME280;6334;48.696;2.114;2023-05-08T00:56:05;100514.83;;;14.02;77.64
12536;BME280;6334;48.696;2.114;2023-05-08T00:58:34;100513.45;;;14.03;77.46
12536;BME280;6334;48.696;2.114;2023-05-08T01:01:04;100510.17;;;14.13;76.96
12536;BME280;6334;48.696;2.114;2023-05-08T01:03:35;100500.76;;;13.89;77.31
12536;BME280;6334;48.696;2.114;2023-05-08T01:06:05;100503.44;;;13.84;77.92
12536;BME280;6334;48.696;2.114;2023-05-08T01:08:35;100503.45;;;13.63;78.47
12536;BME280;6334;48.696;2.114;2023-05-08T01:11:16;100505.66;;;13.67;78.62
12536;BME280;6334;48.696;2.114;2023-05-08T01:14:35;100511.20;;;13.35;79.38
12536;BME280;6334;48.696;2.114;2023-05-08T01:16:31;100512.99;;;13.86;77.64
12536;BME280;6334;48.696;2.114;2023-05-08T01:19:17;100517.17;;;13.72;77.96
12536;BME280;6334;48.696;2.114;2023-05-08T01:21:37;100518.30;;;13.61;78.63
12536;BME280;6334;48.696;2.114;2023-05-08T01:27:15;100511.40;;;13.62;77.99
12536;BME280;6334;48.696;2.114;2023-05-08T01:29:42;100517.95;;;13.70;77.70
12536;BME280;6334;48.696;2.114;2023-05-08T01:32:30;100513.77;;;13.36;79.38
12536;BME280;6334;48.696;2.114;2023-05-08T01:35:21;100515.03;;;13.61;78.62
12536;BME280;6334;48.696;2.114;2023-05-08T01:37:56;100517.88;;;13.21;80.18
12536;BME280;6334;48.696;2.114;2023-05-08T01:42:57;100517.44;;;13.57;78.77
12536;BME280;6334;48.696;2.114;2023-05-08T01:45:45;100519.13;;;13.90;78.28
12536;BME280;6334;48.696;2.114;2023-05-08T01:48:02;100516.66;;;13.48;78.83
12536;BME280;6334;48.696;2.114;2023-05-08T01:50:30;100515.84;;;13.81;78.19
12536;BME280;6334;48.696;2.114;2023-05-08T01:53:04;100515.09;;;13.86;78.21
12536;BME280;6334;48.696;2.114;2023-05-08T01:55:33;100515.57;;;13.13;80.18
12536;BME280;6334;48.696;2.114;2023-05-08T01:58:00;100522.06;;;13.55;79.53
12536;BME280;6334;48.696;2.114;2023-05-08T02:00:31;100518.72;;;13.27;79.63
12536;BME280;6334;48.696;2.114;2023-05-08T02:03:03;100525.09;;;13.58;78.64
12536;BME280;6334;48.696;2.114;2023-05-08T02:05:33;100527.77;;;13.50;79.40
12536;BME280;6334;48.696;2.114;2023-05-08T02:08:03;100522.71;;;13.11;80.92
12536;BME280;6334;48.696;2.114;2023-05-08T02:10:33;100530.29;;;13.77;78.62
12536;BME280;6334;48.696;2.114;2023-05-08T02:13:04;100531.49;;;13.72;78.43
12536;BME280;6334;48.696;2.114;2023-05-08T02:15:34;100523.70;;;13.63;78.98
12536;BME280;6334;48.696;2.114;2023-05-08T02:18:04;100526.16;;;13.89;78.03
12536;BME280;6334;48.696;2.114;2023-05-08T02:20:35;100529.72;;;13.31;79.64
12536;BME280;6334;48.696;2.114;2023-05-08T02:23:05;100530.28;;;13.43;79.82
12536;BME280;6334;48.696;2.114;2023-05-08T02:25:36;100534.35;;;13.80;78.11
12536;BME280;6334;48.696;2.114;2023-05-08T02:28:07;100524.42;;;13.84;78.11
12536;BME280;6334;48.696;2.114;2023-05-08T02:30:37;100537.58;;;13.92;78.30
12536;BME280;6334;48.696;2.114;2023-05-08T02:33:07;100538.66;;;13.97;78.17
12536;BME280;6334;48.696;2.114;2023-05-08T02:35:39;100531.45;;;13.38;79.69
12536;BME280;6334;48.696;2.114;2023-05-08T02:38:08;100533.71;;;13.89;78.41
12536;BME280;6334;48.696;2.114;2023-05-08T02:40:40;100529.06;;;13.96;78.41
12536;BME280;6334;48.696;2.114;2023-05-08T02:43:09;100530.70;;;13.73;78.81
12536;BME280;6334;48.696;2.114;2023-05-08T02:45:48;100524.38;;;14.04;78.04
12536;BME280;6334;48.696;2.114;2023-05-08T02:48:39;100522.27;;;13.82;78.75
12536;BME280;6334;48.696;2.114;2023-05-08T02:51:29;100517.20;;;13.61;79.74
12536;BME280;6334;48.696;2.114;2023-05-08T02:53:58;100515.30;;;13.50;79.90
12536;BME280;6334;48.696;2.114;2023-05-08T02:56:31;100519.03;;;13.56;79.81
12536;BME280;6334;48.696;2.114;2023-05-08T03:02:03;100516.28;;;13.56;79.52
12536;BME280;6334;48.696;2.114;2023-05-08T03:04:30;100506.81;;;13.53;79.10
12536;BME280;6334;48.696;2.114;2023-05-08T03:06:58;100515.36;;;13.31;79.38
12536;BME280;6334;48.696;2.114;2023-05-08T03:09:35;100514.37;;;13.46;79.08
12536;BME280;6334;48.696;2.114;2023-05-08T03:12:03;100513.28;;;13.04;80.57
12536;BME280;6334;48.696;2.114;2023-05-08T03:14:31;100514.28;;;12.92;81.37
12536;BME280;6334;48.696;2.114;2023-05-08T03:17:01;100508.34;;;13.39;79.30
12536;BME280;6334;48.696;2.114;2023-05-08T03:19:32;100517.86;;;13.23;80.05
12536;BME280;6334;48.696;2.114;2023-05-08T03:22:00;100517.83;;;13.53;78.06
12536;BME280;6334;48.696;2.114;2023-05-08T03:24:30;100519.44;;;13.00;80.11
12536;BME280;6334;48.696;2.114;2023-05-08T03:27:00;100519.61;;;13.23;79.24
12536;BME280;6334;48.696;2.114;2023-05-08T03:29:29;100519.64;;;12.79;80.12
12536;BME280;6334;48.696;2.114;2023-05-08T03:31:59;100517.84;;;12.90;79.81
12536;BME280;6334;48.696;2.114;2023-05-08T03:34:29;100514.57;;;12.90;79.93
12536;BME280;6334;48.696;2.114;2023-05-08T03:37:00;100518.72;;;12.93;80.65
12536;BME280;6334;48.696;2.114;2023-05-08T03:39:29;100513.99;;;12.70;80.16
12536;BME280;6334;48.696;2.114;2023-05-08T03:41:59;100514.23;;;12.83;79.62
12536;BME280;6334;48.696;2.114;2023-05-08T03:44:29;100511.98;;;12.51;80.02
12536;BME280;6334;48.696;2.114;2023-05-08T03:46:59;100510.31;;;12.59;80.89
12536;BME280;6334;48.696;2.114;2023-05-08T03:49:30;100511.05;;;12.73;80.24
12536;BME280;6334;48.696;2.114;2023-05-08T03:52:00;100506.67;;;13.21;78.64
12536;BME280;6334;48.696;2.114;2023-05-08T03:54:30;100508.05;;;13.03;79.30
12536;BME280;6334;48.696;2.114;2023-05-08T03:57:01;100505.86;;;12.79;79.98
12536;BME280;6334;48.696;2.114;2023-05-08T04:02:32;100490.45;;;12.59;80.70
12536;BME280;6334;48.696;2.114;2023-05-08T04:05:30;100481.03;;;13.05;79.22
12536;BME280;6334;48.696;2.114;2023-05-08T04:07:51;100488.97;;;13.05;79.25
12536;BME280;6334;48.696;2.114;2023-05-08T04:10:30;100488.86;;;12.96;79.70
12536;BME280;6334;48.696;2.114;2023-05-08T04:15:49;100487.80;;;13.04;79.62
12536;BME280;6334;48.696;2.114;2023-05-08T04:18:15;100487.08;;;12.86;79.41
12536;BME280;6334;48.696;2.114;2023-05-08T04:20:41;100488.34;;;13.02;78.63
12536;BME280;6334;48.696;2.114;2023-05-08T04:23:11;100488.51;;;12.72;79.60
12536;BME280;6334;48.696;2.114;2023-05-08T04:25:40;100486.98;;;12.56;80.66
12536;BME280;6334;48.696;2.114;2023-05-08T04:28:11;100488.84;;;12.59;80.13
12536;BME280;6334;48.696;2.114;2023-05-08T04:30:40;100486.73;;;12.98;79.21
12536;BME280;6334;48.696;2.114;2023-05-08T04:33:10;100487.16;;;13.19;78.42
12536;BME280;6334;48.696;2.114;2023-05-08T04:35:39;100490.63;;;12.82;79.41
12536;BME280;6334;48.696;2.114;2023-05-08T04:38:10;100490.30;;;13.10;78.94
12536;BME280;6334;48.696;2.114;2023-05-08T04:40:40;100498.62;;;12.83;79.54
12536;BME280;6334;48.696;2.114;2023-05-08T04:43:09;100502.19;;;12.80;79.75
12536;BME280;6334;48.696;2.114;2023-05-08T04:45:39;100499.75;;;13.26;78.51
12536;BME280;6334;48.696;2.114;2023-05-08T04:48:08;100499.47;;;12.89;79.96
12536;BME280;6334;48.696;2.114;2023-05-08T04:50:39;100492.77;;;13.18;79.03
12536;BME280;6334;48.696;2.114;2023-05-08T04:53:09;100497.87;;;12.70;80.95
12536;BME280;6334;48.696;2.114;2023-05-08T04:55:39;100501.64;;;13.01;79.82
12536;BME280;6334;48.696;2.114;2023-05-08T04:58:10;100504.72;;;13.29;78.50
12536;BME280;6334;48.696;2.114;2023-05-08T05:00:40;100505.03;;;13.49;77.98
12536;BME280;6334;48.696;2.114;2023-05-08T05:03:11;100510.19;;;13.40;78.47
12536;BME280;6334;48.696;2.114;2023-05-08T05:05:40;100509.13;;;13.33;78.56
12536;BME280;6334;48.696;2.114;2023-05-08T05:08:11;100510.09;;;12.75;80.18
12536;BME280;6334;48.696;2.114;2023-05-08T05:10:40;100516.53;;;12.93;80.36
12536;BME280;6334;48.696;2.114;2023-05-08T05:13:10;100519.52;;;13.28;78.75
12536;BME280;6334;48.696;2.114;2023-05-08T05:15:44;100523.22;;;12.73;80.45
12536;BME280;6334;48.696;2.114;2023-05-08T05:18:13;100526.56;;;12.92;79.68
12536;BME280;6334;48.696;2.114;2023-05-08T05:20:43;100530.21;;;13.41;78.38
12536;BME280;6334;48.696;2.114;2023-05-08T05:23:12;100532.52;;;13.60;77.42
12536;BME280;6334;48.696;2.114;2023-05-08T05:25:42;100532.45;;;13.33;77.40
12536;BME280;6334;48.696;2.114;2023-05-08T05:28:12;100537.05;;;13.24;78.33
12536;BME280;6334;48.696;2.114;2023-05-08T05:30:45;100535.40;;;12.81;80.13
12536;BME280;6334;48.696;2.114;2023-05-08T05:33:13;100537.83;;;13.31;78.50
12536;BME280;6334;48.696;2.114;2023-05-08T05:35:43;100539.78;;;13.45;78.22
12536;BME280;6334;48.696;2.114;2023-05-08T05:38:12;100541.27;;;13.31;78.80
12536;BME280;6334;48.696;2.114;2023-05-08T05:40:43;100545.12;;;13.22;78.74
12536;BME280;6334;48.696;2.114;2023-05-08T05:43:13;100547.44;;;13.21;78.59
12536;BME280;6334;48.696;2.114;2023-05-08T05:45:44;100554.23;;;13.40;78.21
12536;BME280;6334;48.696;2.114;2023-05-08T05:48:14;100556.80;;;13.57;77.52
12536;BME280;6334;48.696;2.114;2023-05-08T05:50:44;100558.20;;;13.23;78.80
12536;BME280;6334;48.696;2.114;2023-05-08T05:53:14;100559.84;;;13.07;79.71
12536;BME280;6334;48.696;2.114;2023-05-08T05:55:45;100567.50;;;13.10;79.39
12536;BME280;6334;48.696;2.114;2023-05-08T05:58:15;100571.88;;;13.20;78.99
12536;BME280;6334;48.696;2.114;2023-05-08T06:00:45;100573.52;;;13.53;77.33
12536;BME280;6334;48.696;2.114;2023-05-08T06:03:15;100577.97;;;13.50;77.94
12536;BME280;6334;48.696;2.114;2023-05-08T06:05:46;100581.27;;;13.23;78.48
12536;BME280;6334;48.696;2.114;2023-05-08T06:08:16;100587.42;;;13.44;77.83
12536;BME280;6334;48.696;2.114;2023-05-08T06:10:47;100582.80;;;13.15;78.95
12536;BME280;6334;48.696;2.114;2023-05-08T06:13:26;100581.58;;;12.87;79.33
12536;BME280;6334;48.696;2.114;2023-05-08T06:15:56;100583.20;;;13.16;78.24
12536;BME280;6334;48.696;2.114;2023-05-08T06:18:26;100585.46;;;13.31;78.89
12536;BME280;6334;48.696;2.114;2023-05-08T06:20:56;100584.39;;;13.34;79.13
12536;BME280;6334;48.696;2.114;2023-05-08T06:23:26;100591.05;;;13.18;79.32
12536;BME280;6334;48.696;2.114;2023-05-08T06:26:05;100593.53;;;13.25;78.71
12536;BME280;6334;48.696;2.114;2023-05-08T06:28:36;100598.89;;;13.50;77.66
12536;BME280;6334;48.696;2.114;2023-05-08T06:31:05;100590.00;;;13.40;77.95
12536;BME280;6334;48.696;2.114;2023-05-08T06:33:35;100596.64;;;13.28;79.81
12536;BME280;6334;48.696;2.114;2023-05-08T06:36:05;100595.00;;;13.63;77.61
12536;BME280;6334;48.696;2.114;2023-05-08T06:38:35;100593.52;;;13.13;79.60
12536;BME280;6334;48.696;2.114;2023-05-08T06:41:06;100592.09;;;13.35;78.52
12536;BME280;6334;48.696;2.114;2023-05-08T06:43:36;100595.98;;;12.83;80.93
12536;BME280;6334;48.696;2.114;2023-05-08T06:46:06;100596.32;;;12.91;80.19
12536;BME280;6334;48.696;2.114;2023-05-08T06:48:36;100593.66;;;13.53;79.26
12536;BME280;6334;48.696;2.114;2023-05-08T06:51:06;100589.06;;;13.22;79.56
12536;BME280;6334;48.696;2.114;2023-05-08T06:53:35;100588.23;;;13.40;79.55
12536;BME280;6334;48.696;2.114;2023-05-08T06:56:06;100591.28;;;13.43;79.30
12536;BME280;6334;48.696;2.114;2023-05-08T06:58:36;100591.73;;;13.79;78.26
12536;BME280;6334;48.696;2.114;2023-05-08T07:01:05;100591.33;;;13.63;78.65
12536;BME280;6334;48.696;2.114;2023-05-08T07:03:36;100601.22;;;13.55;78.32
12536;BME280;6334;48.696;2.114;2023-05-08T07:06:07;100604.60;;;13.36;78.60
12536;BME280;6334;48.696;2.114;2023-05-08T07:08:36;100602.53;;;13.68;78.64
12536;BME280;6334;48.696;2.114;2023-05-08T07:11:05;100608.59;;;13.61;79.61
12536;BME280;6334;48.696;2.114;2023-05-08T07:13:39;100609.00;;;13.55;79.10
12536;BME280;6334;48.696;2.114;2023-05-08T07:16:09;100610.44;;;13.97;77.16
12536;BME280;6334;48.696;2.114;2023-05-08T07:18:40;100613.17;;;14.03;76.95
12536;BME280;6334;48.696;2.114;2023-05-08T07:21:09;100618.27;;;13.45;78.96
12536;BME280;6334;48.696;2.114;2023-05-08T07:23:39;100613.41;;;13.95;77.13
12536;BME280;6334;48.696;2.114;2023-05-08T07:26:09;100613.48;;;13.89;78.13
12536;BME280;6334;48.696;2.114;2023-05-08T07:28:39;100616.38;;;13.47;80.56
12536;BME280;6334;48.696;2.114;2023-05-08T07:31:09;100618.48;;;13.80;78.52
12536;BME280;6334;48.696;2.114;2023-05-08T07:33:38;100621.75;;;14.16;77.91
12536;BME280;6334;48.696;2.114;2023-05-08T07:36:08;100623.23;;;13.93;77.25
12536;BME280;6334;48.696;2.114;2023-05-08T07:38:37;100627.28;;;14.48;75.83
12536;BME280;6334;48.696;2.114;2023-05-08T07:41:07;100636.39;;;14.53;75.74
12536;BME280;6334;48.696;2.114;2023-05-08T07:43:37;100631.52;;;14.02;77.71
12536;BME280;6334;48.696;2.114;2023-05-08T07:46:07;100618.75;;;14.05;76.53
12536;BME280;6334;48.696;2.114;2023-05-08T07:48:37;100631.33;;;14.51;76.86
12536;BME280;6334;48.696;2.114;2023-05-08T07:51:07;100626.62;;;14.28;77.14
12536;BME280;6334;48.696;2.114;2023-05-08T07:53:36;100628.16;;;14.55;76.70
12536;BME280;6334;48.696;2.114;2023-05-08T07:56:07;100636.25;;;14.57;77.29
12536;BME280;6334;48.696;2.114;2023-05-08T07:58:37;100644.86;;;14.68;76.71
12536;BME280;6334;48.696;2.114;2023-05-08T08:01:07;100650.86;;;15.00;76.16
12536;BME280;6334;48.696;2.114;2023-05-08T08:03:38;100648.27;;;14.74;76.05
12536;BME280;6334;48.696;2.114;2023-05-08T08:06:09;100655.72;;;14.91;76.31
12536;BME280;6334;48.696;2.114;2023-05-08T08:08:40;100655.48;;;14.45;77.96
12536;BME280;6334;48.696;2.114;2023-05-08T08:11:13;100657.50;;;15.03;74.93
12536;BME280;6334;48.696;2.114;2023-05-08T08:13:44;100658.70;;;15.05;75.62
12536;BME280;6334;48.696;2.114;2023-05-08T08:16:14;100659.19;;;15.14;75.46
12536;BME280;6334;48.696;2.114;2023-05-08T08:18:44;100656.84;;;15.05;76.11
12536;BME280;6334;48.696;2.114;2023-05-08T08:21:14;100653.53;;;14.82;76.37
12536;BME280;6334;48.696;2.114;2023-05-08T08:23:43;100654.95;;;15.36;75.69
12536;BME280;6334;48.696;2.114;2023-05-08T08:26:13;100658.16;;;15.31;76.05
12536;BME280;6334;48.696;2.114;2023-05-08T08:28:44;100653.92;;;15.63;73.36
12536;BME280;6334;48.696;2.114;2023-05-08T08:31:14;100657.83;;;15.11;76.00
12536;BME280;6334;48.696;2.114;2023-05-08T08:33:45;100655.20;;;15.21;76.17
12536;BME280;6334;48.696;2.114;2023-05-08T08:36:14;100655.22;;;15.61;75.24
12536;BME280;6334;48.696;2.114;2023-05-08T08:38:45;100653.11;;;15.52;74.61
12536;BME280;6334;48.696;2.114;2023-05-08T08:41:15;100650.03;;;15.69;72.67
12536;BME280;6334;48.696;2.114;2023-05-08T08:43:45;100660.83;;;16.07;74.46
12536;BME280;6334;48.696;2.114;2023-05-08T08:46:14;100662.51;;;15.51;75.33
12536;BME280;6334;48.696;2.114;2023-05-08T08:48:45;100661.55;;;16.05;74.47
12536;BME280;6334;48.696;2.114;2023-05-08T08:51:24;100661.85;;;15.61;75.26
12536;BME280;6334;48.696;2.114;2023-05-08T08:56:39;100662.50;;;15.56;75.27
12536;BME280;6334;48.696;2.114;2023-05-08T08:59:11;100665.83;;;15.94;73.99
12536;BME280;6334;48.696;2.114;2023-05-08T09:01:46;100665.55;;;15.01;76.03
12536;BME280;6334;48.696;2.114;2023-05-08T09:04:14;100664.63;;;15.58;73.16
12536;BME280;6334;48.696;2.114;2023-05-08T09:06:43;100654.21;;;15.95;74.47
12536;BME280;6334;48.696;2.114;2023-05-08T09:09:13;100662.65;;;15.68;73.94
12536;BME280;6334;48.696;2.114;2023-05-08T09:11:43;100658.80;;;16.18;72.36
12536;BME280;6334;48.696;2.114;2023-05-08T09:14:12;100657.47;;;16.17;72.20
12536;BME280;6334;48.696;2.114;2023-05-08T09:16:43;100652.39;;;16.38;71.83
12536;BME280;6334;48.696;2.114;2023-05-08T09:19:17;100652.00;;;15.87;73.38
12536;BME280;6334;48.696;2.114;2023-05-08T09:21:47;100653.86;;;16.59;70.05
12536;BME280;6334;48.696;2.114;2023-05-08T09:26:55;100642.46;;;17.04;70.58
12536;BME280;6334;48.696;2.114;2023-05-08T09:29:25;100645.97;;;16.80;70.16
12536;BME280;6334;48.696;2.114;2023-05-08T09:31:55;100645.39;;;16.42;70.77
12536;BME280;6334;48.696;2.114;2023-05-08T09:34:28;100638.44;;;16.92;69.49
12536;BME280;6334;48.696;2.114;2023-05-08T09:39:34;100633.23;;;17.03;67.74
12536;BME280;6334;48.696;2.114;2023-05-08T09:42:07;100631.24;;;17.17;67.62
12536;BME280;6334;48.696;2.114;2023-05-08T09:44:50;100633.37;;;17.33;70.16
12536;BME280;6334;48.696;2.114;2023-05-08T09:47:22;100636.47;;;16.65;69.74
12536;BME280;6334;48.696;2.114;2023-05-08T09:52:26;100630.20;;;17.35;67.21
12536;BME280;6334;48.696;2.114;2023-05-08T09:55:06;100626.38;;;17.45;67.79
12536;BME280;6334;48.696;2.114;2023-05-08T09:57:38;100629.23;;;17.23;70.60
12536;BME280;6334;48.696;2.114;2023-05-08T10:00:08;100620.42;;;18.06;68.35
12536;BME280;6334;48.696;2.114;2023-05-08T10:02:41;100621.27;;;17.87;68.46
12536;BME280;6334;48.696;2.114;2023-05-08T10:05:24;100622.28;;;16.93;67.88
12536;BME280;6334;48.696;2.114;2023-05-08T10:07:53;100619.67;;;17.31;65.81
12536;BME280;6334;48.696;2.114;2023-05-08T10:10:26;100612.02;;;17.68;66.14
12536;BME280;6334;48.696;2.114;2023-05-08T10:12:54;100613.20;;;17.75;66.39
12536;BME280;6334;48.696;2.114;2023-05-08T10:15:27;100604.53;;;18.02;66.06
12536;BME280;6334;48.696;2.114;2023-05-08T10:18:04;100604.15;;;18.03;65.78
12536;BME280;6334;48.696;2.114;2023-05-08T10:20:34;100604.34;;;17.66;67.50
12536;BME280;6334;48.696;2.114;2023-05-08T10:25:41;100606.96;;;17.95;67.76
12536;BME280;6334;48.696;2.114;2023-05-08T10:30:48;100599.58;;;17.78;68.29
12536;BME280;6334;48.696;2.114;2023-05-08T10:33:23;100601.43;;;17.65;65.60
12536;BME280;6334;48.696;2.114;2023-05-08T10:35:52;100592.75;;;17.65;65.07
12536;BME280;6334;48.696;2.114;2023-05-08T10:38:22;100598.09;;;17.48;66.06
12536;BME280;6334;48.696;2.114;2023-05-08T10:40:53;100595.75;;;17.76;67.78
12536;BME280;6334;48.696;2.114;2023-05-08T10:43:24;100595.72;;;17.86;67.99
12536;BME280;6334;48.696;2.114;2023-05-08T10:45:54;100595.44;;;16.99;68.63
12536;BME280;6334;48.696;2.114;2023-05-08T10:51:09;100597.56;;;17.24;69.46
12536;BME280;6334;48.696;2.114;2023-05-08T10:53:51;100594.42;;;17.28;70.46
12536;BME280;6334;48.696;2.114;2023-05-08T10:56:25;100588.74;;;16.99;72.18
12536;BME280;6334;48.696;2.114;2023-05-08T10:58:56;100579.16;;;16.93;70.79
12536;BME280;6334;48.696;2.114;2023-05-08T11:01:26;100574.73;;;16.84;71.80
12536;BME280;6334;48.696;2.114;2023-05-08T11:03:58;100569.30;;;17.03;71.16
12536;BME280;6334;48.696;2.114;2023-05-08T11:06:43;100571.44;;;16.96;72.68
12536;BME280;6334;48.696;2.114;2023-05-08T11:09:20;100571.52;;;16.74;72.40
12536;BME280;6334;48.696;2.114;2023-05-08T11:12:35;100565.52;;;17.44;69.34
12536;BME280;6334;48.696;2.114;2023-05-08T11:14:26;100562.20;;;17.34;69.99
12536;BME280;6334;48.696;2.114;2023-05-08T11:19:30;100558.00;;;16.89;71.62
12536;BME280;6334;48.696;2.114;2023-05-08T11:25:00;100551.92;;;17.37;70.00
12536;BME280;6334;48.696;2.114;2023-05-08T11:27:38;100553.82;;;17.48;68.68
12536;BME280;6334;48.696;2.114;2023-05-08T11:30:19;100548.55;;;17.32;68.88
12536;BME280;6334;48.696;2.114;2023-05-08T11:38:38;100538.52;;;17.48;68.66
12536;BME280;6334;48.696;2.114;2023-05-08T11:41:21;100539.56;;;17.40;69.71
12536;BME280;6334;48.696;2.114;2023-05-08T11:46:16;100521.20;;;17.45;68.75
12536;BME280;6334;48.696;2.114;2023-05-08T11:48:46;100512.23;;;17.42;68.19
12536;BME280;6334;48.696;2.114;2023-05-08T11:51:18;100519.32;;;17.28;68.78
12536;BME280;6334;48.696;2.114;2023-05-08T11:53:48;100506.39;;;17.71;66.94
12536;BME280;6334;48.696;2.114;2023-05-08T11:56:18;100505.36;;;17.81;66.60
12536;BME280;6334;48.696;2.114;2023-05-08T11:59:00;100499.86;;;18.12;66.44
12536;BME280;6334;48.696;2.114;2023-05-08T12:01:19;100497.00;;;17.88;66.72
12536;BME280;6334;48.696;2.114;2023-05-08T12:06:24;100477.23;;;18.74;63.42
12536;BME280;6334;48.696;2.114;2023-05-08T12:08:54;100488.73;;;18.65;65.03
12536;BME280;6334;48.696;2.114;2023-05-08T12:11:25;100488.03;;;18.74;61.70
12536;BME280;6334;48.696;2.114;2023-05-08T12:13:55;100486.73;;;18.80;62.75
12536;BME280;6334;48.696;2.114;2023-05-08T12:16:25;100477.37;;;18.53;64.46
12536;BME280;6334;48.696;2.114;2023-05-08T12:18:55;100480.65;;;18.83;62.00
12536;BME280;6334;48.696;2.114;2023-05-08T12:21:26;100484.44;;;18.56;64.42
12536;BME280;6334;48.696;2.114;2023-05-08T12:23:56;100482.39;;;18.34;66.43
12536;BME280;6334;48.696;2.114;2023-05-08T12:26:26;100482.61;;;18.48;66.24
12536;BME280;6334;48.696;2.114;2023-05-08T12:28:57;100476.87;;;18.19;67.18
12536;BME280;6334;48.696;2.114;2023-05-08T12:31:27;100478.20;;;18.59;64.53
12536;BME280;6334;48.696;2.114;2023-05-08T12:33:57;100480.04;;;18.48;66.41
12536;BME280;6334;48.696;2.114;2023-05-08T12:36:27;100472.16;;;18.62;66.55
12536;BME280;6334;48.696;2.114;2023-05-08T12:39:16;100471.98;;;18.19;68.67
12536;BME280;6334;48.696;2.114;2023-05-08T12:41:48;100478.34;;;18.46;66.95
12536;BME280;6334;48.696;2.114;2023-05-08T12:44:22;100472.59;;;18.64;66.41
12536;BME280;6334;48.696;2.114;2023-05-08T12:46:51;100472.47;;;18.42;66.31
12536;BME280;6334;48.696;2.114;2023-05-08T12:49:28;100470.34;;;18.48;65.33
12536;BME280;6334;48.696;2.114;2023-05-08T12:52:04;100469.45;;;18.67;64.30
12536;BME280;6334;48.696;2.114;2023-05-08T12:54:34;100476.35;;;18.85;62.51
12536;BME280;6334;48.696;2.114;2023-05-08T12:57:00;100472.89;;;18.83;62.81
12536;BME280;6334;48.696;2.114;2023-05-08T12:59:32;100472.60;;;18.88;64.39
12536;BME280;6334;48.696;2.114;2023-05-08T13:02:02;100478.29;;;18.65;63.23
12536;BME280;6334;48.696;2.114;2023-05-08T13:04:35;100482.16;;;18.34;63.65
12536;BME280;6334;48.696;2.114;2023-05-08T13:07:02;100486.26;;;18.66;64.37
12536;BME280;6334;48.696;2.114;2023-05-08T13:09:33;100495.59;;;18.39;65.19
12536;BME280;6334;48.696;2.114;2023-05-08T13:12:03;100501.89;;;18.49;65.84
12536;BME280;6334;48.696;2.114;2023-05-08T13:14:34;100503.35;;;18.11;65.68
12536;BME280;6334;48.696;2.114;2023-05-08T13:17:04;100504.78;;;18.01;65.20
12536;BME280;6334;48.696;2.114;2023-05-08T13:19:34;100508.44;;;17.98;64.55
12536;BME280;6334;48.696;2.114;2023-05-08T13:22:05;100506.25;;;18.01;64.67
12536;BME280;6334;48.696;2.114;2023-05-08T13:24:35;100499.35;;;17.90;64.58
12536;BME280;6334;48.696;2.114;2023-05-08T13:27:06;100496.91;;;18.31;65.27
12536;BME280;6334;48.696;2.114;2023-05-08T13:29:36;100494.59;;;18.11;65.15
12536;BME280;6334;48.696;2.114;2023-05-08T13:32:07;100499.30;;;18.30;65.26
12536;BME280;6334;48.696;2.114;2023-05-08T13:34:37;100499.03;;;18.19;65.12
12536;BME280;6334;48.696;2.114;2023-05-08T13:37:08;100503.68;;;18.55;64.50
12536;BME280;6334;48.696;2.114;2023-05-08T13:39:38;100505.16;;;18.42;63.90
12536;BME280;6334;48.696;2.114;2023-05-08T13:42:09;100504.66;;;18.65;63.94
12536;BME280;6334;48.696;2.114;2023-05-08T13:44:40;100497.94;;;18.71;65.02
12536;BME280;6334;48.696;2.114;2023-05-08T13:47:11;100494.69;;;18.43;64.07
12536;BME280;6334;48.696;2.114;2023-05-08T13:49:41;100485.22;;;18.67;63.40
12536;BME280;6334;48.696;2.114;2023-05-08T13:52:12;100476.16;;;18.72;63.33
12536;BME280;6334;48.696;2.114;2023-05-08T13:57:17;100474.77;;;18.82;64.42
12536;BME280;6334;48.696;2.114;2023-05-08T13:59:47;100481.58;;;18.56;62.96
12536;BME280;6334;48.696;2.114;2023-05-08T14:02:17;100485.32;;;18.70;63.19
12536;BME280;6334;48.696;2.114;2023-05-08T14:04:49;100481.80;;;18.52;63.11
12536;BME280;6334;48.696;2.114;2023-05-08T14:07:19;100479.55;;;18.70;63.61
12536;BME280;6334;48.696;2.114;2023-05-08T14:09:50;100479.27;;;18.22;65.32
12536;BME280;6334;48.696;2.114;2023-05-08T14:12:20;100481.52;;;18.31;64.49